createdAt,value
2023-04-05T00:01:57.079Z,7.05
2023-04-05T00:04:25.892Z,7.04
2023-04-05T00:06:54.424Z,7.03
2023-04-05T00:09:22.380Z,7.03
2023-04-05T00:11:50.388Z,7.06
2023-04-05T00:14:18.721Z,7.07
2023-04-05T00:16:46.903Z,7.07
2023-04-05T00:19:15.504Z,7.07
2023-04-05T00:21:43.443Z,7.08
2023-04-05T00:24:15.577Z,7.09
2023-04-05T00:26:47.769Z,7.11
2023-04-05T00:29:15.766Z,7.13
2023-04-05T00:31:43.967Z,7.03
2023-04-05T00:34:12.628Z,6.99
2023-04-05T00:36:40.551Z,7.01
2023-04-05T00:39:08.666Z,7.00
2023-04-05T00:41:38.046Z,6.98
2023-04-05T00:44:07.881Z,6.96
2023-04-05T00:46:38.837Z,6.93
2023-04-05T00:49:07.077Z,6.91
2023-04-05T00:51:35.102Z,6.90
2023-04-05T00:54:03.568Z,6.90
2023-04-05T00:56:32.317Z,6.88
2023-04-05T00:59:06.265Z,6.87
2023-04-05T01:01:34.656Z,6.83
2023-04-05T01:04:03.827Z,6.82
2023-04-05T01:06:53.907Z,6.85
2023-04-05T01:09:50.266Z,6.87
2023-04-05T01:12:19.777Z,6.88
2023-04-05T01:14:50.341Z,6.89
2023-04-05T01:17:30.405Z,6.89
2023-04-05T01:20:00.489Z,6.89
2023-04-05T01:22:38.160Z,6.91
2023-04-05T01:25:37.829Z,7.03
2023-04-05T01:28:43.731Z,7.08
2023-04-05T01:31:34.442Z,7.06
2023-04-05T01:34:07.095Z,7.05
2023-04-05T01:36:44.078Z,7.04
2023-04-05T01:39:13.284Z,7.04
2023-04-05T01:41:41.315Z,7.03
2023-04-05T01:44:10.570Z,7.03
2023-04-05T01:46:38.661Z,7.04
2023-04-05T01:49:07.177Z,7.01
2023-04-05T01:51:35.887Z,6.98
2023-04-05T01:54:03.945Z,6.95
2023-04-05T01:56:33.282Z,6.93
2023-04-05T01:59:01.224Z,6.91
2023-04-05T02:01:29.754Z,6.90
2023-04-05T02:04:01.868Z,6.87
2023-04-05T02:06:32.512Z,6.86
2023-04-05T02:09:05.635Z,6.85
2023-04-05T02:11:33.710Z,6.84
2023-04-05T02:14:08.805Z,6.87
2023-04-05T02:16:38.455Z,6.83
2023-04-05T02:19:11.056Z,6.82
2023-04-05T02:21:41.032Z,6.82
2023-04-05T02:24:09.154Z,6.83
2023-04-05T02:26:37.311Z,6.86
2023-04-05T02:29:07.482Z,6.87
2023-04-05T02:31:35.719Z,6.86
2023-04-05T02:34:03.859Z,6.82
2023-04-05T02:36:36.906Z,6.80
2023-04-05T02:39:05.014Z,6.79
2023-04-05T02:41:34.525Z,6.79
2023-04-05T02:44:02.861Z,6.79
2023-04-05T02:46:32.199Z,6.80
2023-04-05T02:49:01.113Z,6.79
2023-04-05T02:51:30.630Z,6.77
2023-04-05T02:53:58.971Z,6.76
2023-04-05T02:56:27.198Z,6.78
2023-04-05T02:58:56.518Z,6.79
2023-04-05T03:01:25.788Z,6.79
2023-04-05T03:03:55.304Z,6.79
2023-04-05T03:06:23.531Z,6.80
2023-04-05T03:08:56.108Z,6.81
2023-04-05T03:11:26.380Z,6.82
2023-04-05T03:14:05.704Z,6.83
2023-04-05T03:16:59.976Z,6.82
2023-04-05T03:19:36.200Z,6.81
2023-04-05T03:22:14.913Z,6.81
2023-04-05T03:24:43.528Z,6.80
2023-04-05T03:27:15.299Z,6.80
2023-04-05T03:30:10.028Z,6.82
2023-04-05T03:32:42.694Z,6.84
2023-04-05T03:35:19.297Z,6.84
2023-04-05T03:37:48.523Z,6.82
2023-04-05T03:40:16.733Z,6.81
2023-04-05T03:42:45.605Z,6.81
2023-04-05T03:45:14.654Z,6.80
2023-04-05T03:47:45.768Z,6.80
2023-04-05T03:50:13.857Z,6.80
2023-04-05T03:52:42.317Z,6.80
2023-04-05T03:55:11.712Z,6.83
2023-04-05T03:57:40.717Z,6.84
2023-04-05T04:00:20.254Z,6.84
2023-04-05T04:03:09.764Z,6.85
2023-04-05T04:05:42.083Z,6.83
2023-04-05T04:08:13.688Z,6.83
2023-04-05T04:10:42.122Z,6.85
2023-04-05T04:13:23.443Z,6.84
2023-04-05T04:16:01.429Z,6.83
2023-04-05T04:18:39.383Z,6.81
2023-04-05T04:21:53.331Z,6.78
2023-04-05T04:25:04.848Z,6.75
2023-04-05T04:27:56.537Z,6.75
2023-04-05T04:30:46.843Z,6.76
2023-04-05T04:33:28.140Z,6.73
2023-04-05T04:36:18.280Z,6.73
2023-04-05T04:38:59.413Z,6.75
2023-04-05T04:41:59.665Z,6.75
2023-04-05T04:44:54.769Z,6.73
2023-04-05T04:47:45.560Z,6.71
2023-04-05T04:50:20.725Z,6.69
2023-04-05T04:52:49.093Z,6.69
2023-04-05T04:55:26.134Z,6.72
2023-04-05T04:57:55.491Z,6.73
2023-04-05T05:00:24.390Z,6.73
2023-04-05T05:03:13.543Z,6.72
2023-04-05T05:05:46.946Z,6.70
2023-04-05T05:08:21.172Z,6.67
2023-04-05T05:10:53.614Z,6.67
2023-04-05T05:13:22.623Z,6.69
2023-04-05T05:15:50.772Z,6.69
2023-04-05T05:18:21.349Z,6.71
2023-04-05T05:20:52.891Z,6.73
2023-04-05T05:23:23.881Z,6.75
2023-04-05T05:25:58.209Z,6.78
2023-04-05T05:28:30.102Z,6.80
2023-04-05T05:30:58.079Z,6.80
2023-04-05T05:33:28.894Z,6.78
2023-04-05T05:35:56.916Z,6.76
2023-04-05T05:38:25.132Z,6.75
2023-04-05T05:40:57.852Z,6.74
2023-04-05T05:43:26.200Z,6.76
2023-04-05T05:45:54.369Z,6.77
2023-04-05T05:48:22.541Z,6.76
2023-04-05T05:50:50.838Z,6.76
2023-04-05T05:53:18.813Z,6.76
2023-04-05T05:55:46.839Z,6.79
2023-04-05T05:58:16.972Z,6.82
2023-04-05T06:00:44.951Z,6.84
2023-04-05T06:03:15.125Z,6.83
2023-04-05T06:05:51.684Z,6.82
2023-04-05T06:08:19.636Z,6.81
2023-04-05T06:10:49.007Z,6.78
2023-04-05T06:13:17.333Z,6.77
2023-04-05T06:15:50.529Z,6.78
2023-04-05T06:18:23.083Z,6.78
2023-04-05T06:20:51.104Z,6.79
2023-04-05T06:23:20.542Z,6.81
2023-04-05T06:25:51.735Z,6.84
2023-04-05T06:28:19.793Z,6.82
2023-04-05T06:30:48.835Z,6.80
2023-04-05T06:33:17.483Z,6.80
2023-04-05T06:35:46.901Z,6.80
2023-04-05T06:38:15.734Z,6.79
2023-04-05T06:40:44.417Z,6.82
2023-04-05T06:43:13.673Z,6.84
2023-04-05T06:45:43.065Z,6.86
2023-04-05T06:48:12.144Z,6.87
2023-04-05T06:50:42.316Z,6.87
2023-04-05T06:53:11.788Z,6.84
2023-04-05T06:55:42.700Z,6.82
2023-04-05T06:58:10.729Z,6.80
2023-04-05T07:00:39.091Z,6.79
2023-04-05T07:03:26.616Z,6.78
2023-04-05T07:05:57.050Z,6.79
2023-04-05T07:08:31.003Z,6.81
2023-04-05T07:10:59.879Z,6.82
2023-04-05T07:13:28.085Z,6.86
2023-04-05T07:16:01.531Z,6.88
2023-04-05T07:18:30.346Z,6.91
2023-04-05T07:21:03.890Z,6.90
2023-04-05T07:23:34.709Z,6.92
2023-04-05T07:26:08.076Z,6.95
2023-04-05T07:28:36.499Z,6.96
2023-04-05T07:31:06.482Z,6.99
2023-04-05T07:33:36.463Z,7.02
2023-04-05T07:36:05.068Z,7.04
2023-04-05T07:38:34.482Z,7.03
2023-04-05T07:41:03.131Z,7.05
2023-04-05T07:43:31.763Z,7.06
2023-04-05T07:46:04.084Z,7.08
2023-04-05T07:48:33.667Z,7.10
2023-04-05T07:51:07.091Z,7.14
2023-04-05T07:53:37.241Z,7.20
2023-04-05T07:56:14.371Z,7.21
2023-04-05T07:58:44.498Z,7.21
2023-04-05T08:01:12.748Z,7.20
2023-04-05T08:03:42.215Z,7.21
2023-04-05T08:06:12.015Z,7.25
2023-04-05T08:08:41.297Z,7.31
2023-04-05T08:11:11.842Z,7.37
2023-04-05T08:13:43.951Z,7.39
2023-04-05T08:16:12.213Z,7.42
2023-04-05T08:18:42.319Z,7.48
2023-04-05T08:21:10.451Z,7.52
2023-04-05T08:23:38.887Z,7.54
2023-04-05T08:26:07.987Z,7.58
2023-04-05T08:28:36.404Z,7.63
2023-04-05T08:31:07.703Z,7.67
2023-04-05T08:33:36.739Z,7.73
2023-04-05T08:36:08.364Z,7.79
2023-04-05T08:38:38.739Z,7.86
2023-04-05T08:41:08.328Z,7.89
2023-04-05T08:43:59.163Z,7.88
2023-04-05T08:46:27.664Z,7.88
2023-04-05T08:48:56.454Z,7.91
2023-04-05T08:51:26.350Z,7.98
2023-04-05T08:53:54.373Z,8.01
2023-04-05T08:56:27.336Z,8.05
2023-04-05T08:59:01.558Z,8.08
2023-04-05T09:01:31.134Z,8.10
2023-04-05T09:04:14.443Z,8.13
2023-04-05T09:06:43.175Z,8.16
2023-04-05T09:09:13.875Z,8.18
2023-04-05T09:11:43.679Z,8.23
2023-04-05T09:14:12.433Z,8.28
2023-04-05T09:16:46.522Z,8.35
2023-04-05T09:19:15.986Z,8.43
2023-04-05T09:22:06.813Z,8.53
2023-04-05T09:24:43.575Z,8.62
2023-04-05T09:27:15.446Z,8.70
2023-04-05T09:29:49.026Z,8.77
2023-04-05T09:32:21.496Z,8.84
2023-04-05T09:34:52.485Z,8.89
2023-04-05T09:37:28.081Z,8.92
2023-04-05T09:40:04.412Z,8.92
2023-04-05T09:42:45.010Z,8.91
2023-04-05T09:45:15.381Z,8.92
2023-04-05T09:47:57.455Z,8.93
2023-04-05T09:50:25.955Z,8.92
2023-04-05T09:53:07.203Z,8.90
2023-04-05T09:55:36.409Z,8.86
2023-04-05T09:58:04.585Z,8.86
2023-04-05T10:00:32.944Z,8.89
2023-04-05T10:03:01.976Z,8.89
2023-04-05T10:05:32.635Z,8.87
2023-04-05T10:08:02.321Z,8.86
2023-04-05T10:10:30.979Z,8.87
2023-04-05T10:13:01.109Z,8.87
2023-04-05T10:15:31.672Z,8.87
2023-04-05T10:18:08.994Z,8.91
2023-04-05T10:20:39.932Z,8.95
2023-04-05T10:23:22.989Z,8.99
2023-04-05T10:25:54.501Z,9.04
2023-04-05T10:28:37.640Z,9.09
2023-04-05T10:31:36.466Z,9.11
2023-04-05T10:34:07.417Z,9.10
2023-04-05T10:36:40.101Z,9.13
2023-04-05T10:39:18.742Z,9.17
2023-04-05T10:41:53.960Z,9.21
2023-04-05T10:44:26.083Z,9.28
2023-04-05T10:46:55.104Z,9.35
2023-04-05T10:49:35.386Z,9.40
2023-04-05T10:52:04.079Z,9.43
2023-04-05T10:54:37.207Z,9.49
2023-04-05T10:57:10.813Z,9.54
2023-04-05T10:59:44.374Z,9.57
2023-04-05T11:02:14.756Z,9.59
2023-04-05T11:04:45.575Z,9.63
2023-04-05T11:07:17.635Z,9.69
2023-04-05T11:10:00.469Z,9.72
2023-04-05T11:12:47.346Z,9.73
2023-04-05T11:15:34.243Z,9.77
2023-04-05T11:18:17.857Z,9.82
2023-04-05T11:20:53.247Z,9.83
2023-04-05T11:23:23.894Z,9.84
2023-04-05T11:25:57.905Z,9.86
2023-04-05T11:28:31.836Z,9.88
2023-04-05T11:31:23.065Z,9.93
2023-04-05T11:33:57.278Z,9.99
2023-04-05T11:36:48.194Z,10.03
2023-04-05T11:39:19.351Z,10.10
2023-04-05T11:41:54.890Z,10.17
2023-04-05T11:44:24.695Z,10.25
2023-04-05T11:46:53.663Z,10.32
2023-04-05T11:49:26.163Z,10.41
2023-04-05T11:51:54.500Z,10.47
2023-04-05T11:54:32.923Z,10.48
2023-04-05T11:57:02.207Z,10.50
2023-04-05T11:59:35.006Z,10.49
2023-04-05T12:02:06.493Z,10.50
2023-04-05T12:04:36.474Z,10.55
2023-04-05T12:07:14.985Z,10.60
2023-04-05T12:10:02.114Z,10.64
2023-04-05T12:12:38.863Z,10.63
2023-04-05T12:15:08.869Z,10.59
2023-04-05T12:17:45.875Z,10.58
2023-04-05T12:20:16.621Z,10.55
2023-04-05T12:22:45.864Z,10.53
2023-04-05T12:25:13.915Z,10.53
2023-04-05T12:27:41.988Z,10.56
2023-04-05T12:30:16.231Z,10.58
2023-04-05T12:32:53.061Z,10.57
2023-04-05T12:35:25.214Z,10.59
2023-04-05T12:37:53.646Z,10.58
2023-04-05T12:40:25.222Z,10.56
2023-04-05T12:42:53.305Z,10.55
2023-04-05T12:45:23.553Z,10.55
2023-04-05T12:47:59.294Z,10.56
2023-04-05T12:50:29.169Z,10.59
2023-04-05T12:53:01.312Z,10.62
2023-04-05T12:55:31.873Z,10.65
2023-04-05T12:58:06.003Z,10.65
2023-04-05T13:00:34.672Z,10.67
2023-04-05T13:03:03.542Z,10.73
2023-04-05T13:05:36.898Z,10.82
2023-04-05T13:08:05.751Z,10.91
2023-04-05T13:10:33.836Z,10.97
2023-04-05T13:13:02.016Z,11.01
2023-04-05T13:15:30.682Z,11.01
2023-04-05T13:17:59.113Z,10.98
2023-04-05T13:20:30.034Z,10.93
2023-04-05T13:22:58.093Z,10.92
2023-04-05T13:25:28.666Z,10.96
2023-04-05T13:27:59.775Z,11.01
2023-04-05T13:30:28.112Z,11.04
2023-04-05T13:32:58.982Z,11.00
2023-04-05T13:35:27.197Z,10.97
2023-04-05T13:37:55.824Z,10.96
2023-04-05T13:40:24.134Z,10.99
2023-04-05T13:42:52.424Z,10.99
2023-04-05T13:45:20.706Z,10.97
2023-04-05T13:47:48.795Z,10.93
2023-04-05T13:50:16.840Z,10.88
2023-04-05T13:52:46.113Z,10.83
2023-04-05T13:55:14.178Z,10.76
2023-04-05T13:57:43.733Z,10.69
2023-04-05T14:00:14.947Z,10.66
2023-04-05T14:02:44.348Z,10.61
2023-04-05T14:05:15.388Z,10.56
2023-04-05T14:07:43.692Z,10.50
2023-04-05T14:10:13.671Z,10.45
2023-04-05T14:12:42.788Z,10.41
2023-04-05T14:15:11.586Z,10.41
2023-04-05T14:17:48.421Z,10.42
2023-04-05T14:20:17.266Z,10.44
2023-04-05T14:22:45.608Z,10.45
2023-04-05T14:25:15.916Z,10.45
2023-04-05T14:27:44.234Z,10.43
2023-04-05T14:30:12.993Z,10.40
2023-04-05T14:32:43.869Z,10.36
2023-04-05T14:35:11.904Z,10.30
2023-04-05T14:37:39.850Z,10.24
2023-04-05T14:40:08.690Z,10.19
2023-04-05T14:42:48.320Z,10.16
2023-04-05T14:45:18.373Z,10.15
2023-04-05T14:47:46.648Z,10.14
2023-04-05T14:50:21.375Z,10.11
2023-04-05T14:52:49.602Z,10.10
2023-04-05T14:55:19.722Z,10.11
2023-04-05T14:57:48.411Z,10.13
2023-04-05T15:00:17.820Z,10.16
2023-04-05T15:03:04.265Z,10.18
2023-04-05T15:05:33.474Z,10.22
2023-04-05T15:08:01.547Z,10.27
2023-04-05T15:10:39.375Z,10.30
2023-04-05T15:13:10.319Z,10.31
2023-04-05T15:15:38.366Z,10.31
2023-04-05T15:18:20.549Z,10.31
2023-04-05T15:20:51.719Z,10.31
2023-04-05T15:23:19.708Z,10.28
2023-04-05T15:25:48.229Z,10.26
2023-04-05T15:28:16.510Z,10.25
2023-04-05T15:30:46.675Z,10.24
2023-04-05T15:33:14.712Z,10.24
2023-04-05T15:35:42.641Z,10.25
2023-04-05T15:38:11.288Z,10.26
2023-04-05T15:40:40.327Z,10.26
2023-04-05T15:43:08.276Z,10.17
2023-04-05T15:45:37.528Z,10.18
2023-04-05T15:48:08.157Z,10.15
2023-04-05T15:50:36.647Z,10.11
2023-04-05T15:53:04.791Z,10.09
2023-04-05T15:55:37.011Z,10.12
2023-04-05T15:58:05.461Z,10.14
2023-04-05T16:00:34.430Z,10.17
2023-04-05T16:03:03.557Z,10.18
2023-04-05T16:05:31.929Z,10.17
2023-04-05T16:08:01.718Z,10.14
2023-04-05T16:10:30.034Z,10.10
2023-04-05T16:13:01.988Z,10.08
2023-04-05T16:15:32.694Z,10.07
2023-04-05T16:18:01.120Z,10.05
2023-04-05T16:20:30.280Z,10.05
2023-04-05T16:22:59.042Z,10.05
2023-04-05T16:25:29.385Z,10.02
2023-04-05T16:27:58.473Z,10.00
2023-04-05T16:30:27.010Z,9.99
2023-04-05T16:32:55.290Z,9.99
2023-04-05T16:35:25.729Z,9.97
2023-04-05T16:37:54.285Z,9.95
2023-04-05T16:40:23.348Z,9.93
2023-04-05T16:42:51.509Z,9.90
2023-04-05T16:45:19.915Z,9.88
2023-04-05T16:47:48.590Z,9.86
2023-04-05T16:50:16.853Z,9.85
2023-04-05T16:52:45.973Z,9.84
2023-04-05T16:55:14.318Z,9.83
2023-04-05T16:57:44.299Z,9.83
2023-04-05T17:00:15.374Z,9.83
2023-04-05T17:02:44.532Z,9.81
2023-04-05T17:05:13.600Z,9.78
2023-04-05T17:07:44.622Z,9.76
2023-04-05T17:10:12.681Z,9.76
2023-04-05T17:12:54.002Z,9.76
2023-04-05T17:15:22.880Z,9.75
2023-04-05T17:17:52.145Z,9.74
2023-04-05T17:20:20.186Z,9.77
2023-04-05T17:22:50.374Z,9.77
2023-04-05T17:25:18.447Z,9.79
2023-04-05T17:27:47.385Z,9.82
2023-04-05T17:30:16.333Z,9.83
2023-04-05T17:32:52.708Z,9.84
2023-04-05T17:35:21.677Z,9.84
2023-04-05T17:37:50.062Z,9.82
2023-04-05T17:40:20.699Z,9.83
2023-04-05T17:42:49.274Z,9.82
2023-04-05T17:45:17.553Z,9.82
2023-04-05T17:47:47.003Z,9.84
2023-04-05T17:50:15.675Z,9.85
2023-04-05T17:52:46.675Z,9.87
2023-04-05T17:55:14.904Z,9.87
2023-04-05T17:57:46.898Z,9.86
2023-04-05T18:00:15.920Z,9.87
2023-04-05T18:02:48.614Z,9.89
2023-04-05T18:05:18.134Z,9.90
2023-04-05T18:07:46.302Z,9.92
2023-04-05T18:10:14.285Z,9.94
2023-04-05T18:12:42.553Z,9.92
2023-04-05T18:15:17.435Z,9.91
2023-04-05T18:17:48.498Z,9.89
2023-04-05T18:20:18.574Z,9.90
2023-04-05T18:22:50.152Z,9.91
2023-04-05T18:25:20.298Z,9.92
2023-04-05T18:27:50.998Z,9.93
2023-04-05T18:30:20.341Z,9.94
2023-04-05T18:32:53.010Z,9.96
2023-04-05T18:35:22.121Z,9.98
2023-04-05T18:37:50.559Z,10.00
2023-04-05T18:40:20.745Z,10.03
2023-04-05T18:42:49.522Z,10.06
2023-04-05T18:45:18.025Z,10.12
2023-04-05T18:47:46.014Z,10.15
2023-04-05T18:50:14.657Z,10.19
2023-04-05T18:52:43.059Z,10.22
2023-04-05T18:55:15.822Z,10.23
2023-04-05T18:57:44.233Z,10.24
2023-04-05T19:00:13.417Z,10.23
2023-04-05T19:02:46.847Z,10.22
2023-04-05T19:05:15.725Z,10.23
2023-04-05T19:07:46.545Z,10.23
2023-04-05T19:10:14.802Z,10.25
2023-04-05T19:12:45.646Z,10.26
2023-04-05T19:15:14.894Z,10.28
2023-04-05T19:17:43.765Z,10.30
2023-04-05T19:20:11.934Z,10.34
2023-04-05T19:22:40.479Z,10.36
2023-04-05T19:25:09.148Z,10.37
2023-04-05T19:27:37.768Z,10.38
2023-04-05T19:30:07.253Z,10.40
2023-04-05T19:32:41.221Z,10.42
2023-04-05T19:35:09.907Z,10.43
2023-04-05T19:37:39.177Z,10.44
2023-04-05T19:40:07.992Z,10.46
2023-04-05T19:42:36.228Z,10.47
2023-04-05T19:45:08.124Z,10.48
2023-04-05T19:47:37.579Z,10.47
2023-04-05T19:52:51.681Z,10.48
2023-04-05T19:55:32.172Z,10.47
2023-04-05T19:58:01.837Z,10.46
2023-04-05T20:00:39.197Z,10.46
2023-04-05T20:03:42.581Z,10.48
2023-04-05T20:06:14.972Z,10.49
2023-04-05T20:08:45.130Z,10.49
2023-04-05T20:11:16.806Z,10.51
2023-04-05T20:13:48.257Z,10.52
2023-04-05T20:16:19.120Z,10.53
2023-04-05T20:18:48.099Z,10.57
2023-04-05T20:21:21.094Z,10.57
2023-04-05T20:23:49.021Z,10.57
2023-04-05T20:26:17.942Z,10.57
2023-04-05T20:28:53.292Z,10.57
2023-04-05T20:31:24.021Z,10.57
2023-04-05T20:34:14.843Z,10.60
2023-04-05T20:36:49.749Z,10.62
2023-04-05T20:39:24.488Z,10.63
2023-04-05T20:41:52.865Z,10.63
2023-04-05T20:44:24.507Z,10.63
2023-04-05T20:46:54.266Z,10.62
2023-04-05T20:49:22.608Z,10.64
2023-04-05T20:51:51.570Z,10.66
2023-04-05T20:54:21.236Z,10.67
2023-04-05T20:56:49.390Z,10.68
2023-04-05T20:59:17.665Z,10.69
2023-04-05T21:01:47.510Z,10.72
2023-04-05T21:04:18.047Z,10.73
2023-04-05T21:06:46.156Z,10.73
2023-04-05T21:09:14.161Z,10.73
2023-04-05T21:11:42.694Z,10.70
2023-04-05T21:14:15.303Z,10.71
2023-04-05T21:16:43.366Z,10.73
2023-04-05T21:19:11.552Z,10.73
2023-04-05T21:21:41.862Z,10.72
2023-04-05T21:24:09.933Z,10.74
2023-04-05T21:26:38.494Z,10.76
2023-04-05T21:29:07.421Z,10.77
2023-04-05T21:31:38.315Z,10.80
2023-04-05T21:34:06.856Z,10.83
2023-04-05T21:36:39.404Z,10.86
2023-04-05T21:39:07.986Z,10.87
2023-04-05T21:41:38.541Z,10.90
2023-04-05T21:44:08.962Z,10.94
2023-04-05T21:46:40.013Z,10.97
2023-04-05T21:49:09.495Z,10.99
2023-04-05T21:51:38.097Z,11.01
2023-04-05T21:54:07.289Z,11.00
2023-04-05T21:56:37.854Z,11.01
2023-04-05T21:59:06.184Z,11.02
2023-04-05T22:01:36.738Z,11.04
2023-04-05T22:04:07.345Z,11.07
2023-04-05T22:06:35.517Z,11.08
2023-04-05T22:09:03.581Z,11.09
2023-04-05T22:11:32.696Z,11.08
2023-04-05T22:14:02.889Z,11.06
2023-04-05T22:16:30.961Z,11.06
2023-04-05T22:18:59.265Z,11.08
2023-04-05T22:21:27.397Z,11.08
2023-04-05T22:23:55.427Z,11.08
2023-04-05T22:26:23.356Z,11.09
2023-04-05T22:28:51.383Z,11.10
2023-04-05T22:31:19.423Z,11.11
2023-04-05T22:33:48.915Z,11.11
2023-04-05T22:36:17.290Z,11.11
2023-04-05T22:38:45.993Z,11.14
2023-04-05T22:41:16.626Z,11.16
2023-04-05T22:43:47.988Z,11.17
2023-04-05T22:46:16.565Z,11.16
2023-04-05T22:48:47.191Z,11.15
2023-04-05T22:51:15.987Z,11.15
2023-04-05T22:53:44.137Z,11.17
2023-04-05T22:56:17.698Z,11.18
2023-04-05T22:58:46.158Z,11.21
2023-04-05T23:01:14.200Z,11.23
2023-04-05T23:03:42.339Z,11.26
2023-04-05T23:06:10.678Z,11.26
2023-04-05T23:08:38.668Z,11.28
2023-04-05T23:11:09.678Z,11.28
2023-04-05T23:13:41.004Z,11.29
2023-04-05T23:16:08.979Z,11.32
2023-04-05T23:18:39.232Z,11.34
2023-04-05T23:21:07.462Z,11.34
2023-04-05T23:23:36.831Z,11.36
2023-04-05T23:26:05.095Z,11.35
2023-04-05T23:28:33.353Z,11.35
2023-04-05T23:31:01.899Z,11.38
2023-04-05T23:33:33.921Z,11.40
2023-04-05T23:36:02.811Z,11.40
2023-04-05T23:38:31.692Z,11.43
2023-04-05T23:40:59.694Z,11.43
2023-04-05T23:43:27.662Z,11.46
2023-04-05T23:45:55.691Z,11.46
2023-04-05T23:48:29.135Z,11.44
2023-04-05T23:50:57.486Z,11.43
2023-04-05T23:53:25.974Z,11.45
2023-04-05T23:55:57.730Z,11.47
2023-04-05T23:58:25.994Z,11.48
